.
WxDataArchive / Data Records for 2008-08-07
2008-08-06 August 2008 2008-08-08

Data Records for Thursday, 07 August 2008

Time	Temp	Chill	HIndex	Humid	Dewpt	 Wind 	HiWind	WindDir	Rain 	Barom 
-----	----	-----	------	-----	-----	------	------	-------	-----	----- 
00:00	70.1	70.1	70.1	67	58.6	0	1	315	0.00	29.881 
00:05	70.3	70.3	70.3	66	58.4	0	1	315	0.00	29.881 
00:10	70.6	70.6	70.6	65	58.2	0	2	315	0.00	29.880 
00:15	70.8	70.8	70.8	65	58.4	0	2	315	0.00	29.879 
00:20	70.8	70.8	70.8	65	58.4	0	1	315	0.00	29.878 
00:25	70.9	70.9	70.9	65	58.5	0	2	315	0.00	29.877 
00:30	70.9	70.9	70.9	65	58.5	0	1	315	0.00	29.875 
00:35	70.8	70.8	70.8	66	58.9	0	2	315	0.00	29.871 
00:40	70.6	70.6	70.6	67	59.1	0	1	315	0.00	29.877 
00:45	70.3	70.3	70.3	68	59.2	0	3	315	0.00	29.877 
00:50	70.1	70.1	70.1	68	59.0	1	3	292	0.00	29.876 
00:55	69.9	69.9	69.9	68	58.8	0	2	292	0.00	29.875 
01:00	69.6	69.6	69.6	69	59.0	0	1	292	0.00	29.872 
01:05	69.1	69.1	69.1	69	58.5	0	1	292	0.00	29.875 
01:10	68.8	68.8	68.8	69	58.2	0	1	292	0.00	29.871 
01:15	68.4	68.4	68.4	69	57.8	0	1	292	0.00	29.870 
01:20	68.1	68.1	68.1	70	57.9	0	1	292	0.00	29.870 
01:25	67.9	67.9	67.9	70	57.7	0	1	292	0.00	29.869 
01:30	67.6	67.6	67.6	70	57.5	0	0	---	0.00	29.866 
01:35	67.4	67.4	67.4	71	57.7	0	0	---	0.00	29.867 
01:40	67.1	67.1	67.1	71	57.4	0	1	292	0.00	29.865 
01:45	66.8	66.8	66.8	71	57.1	0	0	---	0.00	29.862 
01:50	66.6	66.6	66.6	72	57.3	0	0	---	0.00	29.861 
01:55	66.3	66.3	66.3	72	57.0	0	0	---	0.00	29.858 
02:00	66.1	66.1	66.1	73	57.2	0	0	---	0.00	29.856 
02:05	65.8	65.8	65.8	73	56.9	0	0	---	0.00	29.856 
02:10	65.5	65.5	65.5	74	57.0	0	0	---	0.00	29.854 
02:15	65.2	65.2	65.2	76	57.4	0	0	---	0.00	29.855 
02:20	64.8	64.8	64.8	77	57.4	0	0	---	0.00	29.855 
02:25	64.5	64.5	64.5	78	57.5	0	0	---	0.00	29.854 
02:30	64.2	64.2	64.2	79	57.5	0	0	---	0.00	29.853 
02:35	64.0	64.0	64.0	80	57.7	0	0	---	0.00	29.852 
02:40	63.7	63.7	63.7	81	57.8	0	0	---	0.00	29.853 
02:45	63.5	63.5	63.5	82	57.9	0	0	---	0.00	29.851 
02:50	63.4	63.4	63.4	83	58.1	0	0	---	0.00	29.851 
02:55	63.2	63.2	63.2	83	57.9	0	0	---	0.00	29.849 
03:00	63.1	63.1	63.1	84	58.2	0	0	---	0.00	29.847 
03:05	63.1	63.1	63.1	84	58.2	0	0	---	0.00	29.844 
03:10	62.9	62.9	62.9	85	58.3	0	0	---	0.00	29.843 
03:15	62.9	62.9	62.9	85	58.3	0	0	---	0.00	29.842 
03:20	62.7	62.7	62.7	86	58.4	0	0	---	0.00	29.841 
03:25	62.7	62.7	62.7	86	58.4	0	0	---	0.00	29.840 
03:30	62.7	62.7	62.7	87	58.8	0	1	292	0.00	29.839 
03:35	62.9	62.9	62.9	87	59.0	0	0	---	0.00	29.839 
03:40	63.1	63.1	63.1	87	59.2	0	1	292	0.00	29.838 
03:45	63.2	63.2	63.2	87	59.3	0	1	292	0.00	29.838 
03:50	63.4	63.4	63.4	86	59.1	0	0	---	0.00	29.838 
03:55	63.7	63.7	63.7	86	59.4	0	1	292	0.00	29.838 
04:00	63.9	63.9	63.9	86	59.6	0	1	292	0.00	29.837 
04:05	64.0	64.0	64.0	85	59.4	0	1	292	0.00	29.839 
04:10	64.2	64.2	64.2	85	59.6	0	1	292	0.00	29.839 
04:15	64.3	64.3	64.3	85	59.7	0	1	292	0.00	29.839 
04:20	64.5	64.5	64.5	85	59.9	0	1	292	0.00	29.838 
04:25	64.7	64.7	64.7	85	60.1	0	1	292	0.00	29.838 
04:30	64.7	64.7	64.7	86	60.4	0	1	292	0.00	29.838 
04:35	64.7	64.7	64.7	86	60.4	0	1	292	0.00	29.839 
04:40	64.7	64.7	64.7	86	60.4	0	1	292	0.00	29.841 
04:45	64.7	64.7	64.7	86	60.4	0	1	292	0.00	29.843 
04:50	64.7	64.7	64.7	87	60.7	0	1	292	0.00	29.844 
04:55	64.7	64.7	64.7	87	60.7	0	1	292	0.00	29.843 
05:00	64.5	64.5	64.5	87	60.5	0	1	292	0.00	29.842 
05:05	64.5	64.5	64.5	87	60.5	0	1	292	0.00	29.846 
05:10	64.5	64.5	64.5	88	60.9	0	1	292	0.00	29.847 
05:15	64.5	64.5	64.5	88	60.9	0	1	292	0.00	29.847 
05:20	64.7	64.7	64.7	88	61.1	0	2	292	0.00	29.850 
05:25	64.8	64.8	64.8	88	61.2	0	2	292	0.00	29.850 
05:30	64.8	64.8	64.8	88	61.2	0	1	292	0.00	29.850 
05:35	64.7	64.7	64.7	88	61.1	0	1	292	0.00	29.850 
05:40	64.7	64.7	64.7	89	61.4	0	1	292	0.00	29.851 
05:45	64.7	64.7	64.7	89	61.4	0	2	292	0.00	29.853 
05:50	64.7	64.7	64.7	89	61.4	0	2	292	0.00	29.854 
05:55	64.7	64.7	64.7	89	61.4	0	2	292	0.00	29.854 
06:00	64.5	64.5	64.5	90	61.5	0	1	292	0.00	29.856 
06:05	64.7	64.7	64.7	90	61.7	0	2	292	0.00	29.857 
06:10	64.7	64.7	64.7	90	61.7	0	1	292	0.00	29.857 
06:15	64.7	64.7	64.7	90	61.7	0	2	292	0.00	29.860 
06:20	64.7	64.7	64.7	90	61.7	0	2	292	0.00	29.862 
06:25	64.8	64.8	64.8	90	61.8	0	2	292	0.00	29.862 
06:30	64.8	64.8	64.8	90	61.8	1	4	292	0.00	29.860 
06:35	65.0	65.0	65.0	89	61.7	0	4	315	0.00	29.863 
06:40	65.2	65.2	65.2	89	61.9	0	1	315	0.00	29.866 
06:45	65.5	65.5	65.5	89	62.2	1	4	270	0.00	29.864 
06:50	65.8	65.8	65.8	88	62.1	1	3	292	0.00	29.864 
06:55	66.1	66.1	66.1	88	62.4	1	2	292	0.00	29.864 
07:00	66.3	66.3	66.3	87	62.3	1	2	292	0.00	29.861 
07:05	66.6	66.6	66.6	86	62.3	1	3	315	0.00	29.865 
07:10	66.9	66.9	66.9	85	62.2	1	2	315	0.00	29.864 
07:15	67.4	67.4	67.4	85	62.7	0	2	315	0.00	29.865 
07:20	67.8	67.8	67.8	84	62.8	0	1	315	0.00	29.862 
07:25	68.1	68.1	68.1	83	62.7	0	2	315	0.00	29.864 
07:30	68.4	68.4	68.4	82	62.7	1	3	315	0.00	29.864 
07:35	68.9	68.9	68.9	82	63.2	0	1	315	0.00	29.868 
07:40	69.3	69.3	69.3	80	62.9	1	2	315	0.00	29.870 
07:45	69.4	69.4	69.4	80	63.0	1	3	315	0.00	29.871 
07:50	69.8	69.8	69.8	79	63.0	1	4	315	0.00	29.870 
07:55	69.9	69.9	69.9	78	62.7	1	4	315	0.00	29.870 
08:00	70.1	70.1	70.1	78	62.9	1	3	292	0.00	29.870 
08:05	70.3	70.3	70.3	78	63.1	1	3	292	0.00	29.872 
08:10	70.6	70.6	70.6	77	63.0	1	4	315	0.00	29.872 
08:15	70.9	70.9	70.9	78	63.7	0	2	315	0.00	29.869 
08:20	71.3	71.3	71.3	76	63.3	1	3	292	0.00	29.870 
08:25	71.6	71.6	71.6	77	64.0	1	3	292	0.00	29.870 
08:30	72.0	72.0	72.0	75	63.6	1	6	315	0.00	29.870 
08:35	72.1	72.1	72.1	75	63.7	0	2	315	0.00	29.870 
08:40	72.3	72.3	72.3	75	63.9	1	3	315	0.00	29.870 
08:45	72.5	72.5	72.5	73	63.3	2	4	292	0.00	29.870 
08:50	72.7	72.7	72.7	74	63.9	1	4	315	0.00	29.871 
08:55	72.8	72.8	72.8	73	63.6	1	3	270	0.00	29.869 
09:00	73.2	73.2	73.2	72	63.6	2	4	292	0.00	29.869 
09:05	73.2	73.2	73.2	73	64.0	1	2	315	0.00	29.872 
09:10	73.5	73.5	73.5	73	64.3	1	3	315	0.00	29.871 
09:15	74.0	74.0	74.0	71	64.0	1	2	315	0.00	29.870 
09:20	74.0	74.0	74.0	69	63.2	2	4	270	0.00	29.870 
09:25	74.0	74.0	74.0	69	63.2	1	3	315	0.00	29.870 
09:30	74.2	74.2	74.2	68	62.9	2	5	292	0.00	29.870 
09:35	74.0	74.0	74.0	66	61.9	2	5	315	0.00	29.870 
09:40	74.2	74.2	74.2	68	62.9	2	4	292	0.00	29.870 
09:45	74.7	74.7	74.7	67	63.0	1	3	270	0.00	29.869 
09:50	74.9	74.9	74.9	64	61.9	2	5	270	0.00	29.869 
09:55	75.4	75.4	77.4	65	62.8	1	2	292	0.00	29.869 
10:00	76.1	76.1	77.9	66	63.9	1	2	292	0.00	29.866 
10:05	76.5	76.5	78.3	63	62.9	2	5	315	0.00	29.867 
10:10	76.3	76.3	78.2	63	62.8	2	5	292	0.00	29.869 
10:15	75.8	75.8	77.8	62	61.8	1	5	315	0.00	29.868 
10:20	75.4	75.4	77.5	63	61.9	1	5	270	0.00	29.869 
10:25	75.8	75.8	77.8	63	62.3	1	3	270	0.00	29.867 
10:30	76.3	76.3	78.2	63	62.8	1	3	338	0.00	29.867 
10:35	76.8	76.8	78.6	64	63.7	1	2	0	0.00	29.863 
10:40	77.0	77.0	78.8	60	62.0	1	3	338	0.00	29.865 
10:45	76.0	76.0	78.0	62	62.0	2	5	315	0.00	29.865 
10:50	76.0	76.0	78.0	62	62.0	1	3	292	0.00	29.863 
10:55	76.8	76.8	78.6	62	62.8	1	3	315	0.00	29.861 
11:00	77.4	77.4	79.1	59	61.9	1	4	315	0.00	29.861 
11:05	77.6	77.6	79.3	60	62.6	1	4	315	0.00	29.857 
11:10	77.7	77.7	79.5	63	64.1	1	5	270	0.00	29.855 
11:15	78.3	78.3	80.0	60	63.2	1	3	315	0.00	29.857 
11:20	77.9	77.9	79.5	59	62.4	1	2	292	0.00	29.854 
11:25	77.9	77.9	79.6	60	62.9	1	2	292	0.00	29.854 
11:30	78.3	78.3	79.8	57	61.8	1	4	292	0.00	29.852 
11:35	78.5	78.5	80.0	57	62.0	1	3	315	0.00	29.853 
11:40	78.8	78.8	80.2	56	61.8	2	7	270	0.00	29.852 
11:45	79.2	79.2	80.4	54	61.1	1	3	292	0.00	29.852 
11:50	79.6	79.6	80.8	54	61.5	1	2	338	0.00	29.850 
11:55	79.0	79.0	80.2	53	60.4	1	3	315	0.00	29.852 
12:00	79.2	79.2	80.1	50	58.9	1	4	270	0.00	29.850 
12:05	79.4	79.4	80.3	50	59.1	1	3	315	0.00	29.847 
12:10	79.6	79.6	81.0	56	62.5	1	4	270	0.00	29.844 
12:15	79.8	79.8	80.9	53	61.1	1	4	270	0.00	29.842 
12:20	79.8	79.8	80.7	51	60.0	1	3	292	0.00	29.842 
12:25	80.3	80.3	80.9	48	58.8	1	3	292	0.00	29.837 
12:30	80.3	80.3	81.0	49	59.4	1	4	292	0.00	29.839 
12:35	79.0	79.0	80.0	50	58.7	1	2	292	0.00	29.840 
12:40	78.8	78.8	79.9	52	59.7	1	6	292	0.00	29.839 
12:45	79.4	79.4	80.2	49	58.5	1	4	270	0.00	29.839 
12:50	79.9	79.9	80.3	45	56.6	2	5	270	0.00	29.837 
12:55	80.1	80.1	80.5	46	57.4	1	3	0	0.00	29.836 
13:00	80.3	80.3	80.7	46	57.6	1	4	292	0.00	29.835 
13:05	79.9	79.9	80.4	46	57.2	0	1	292	0.00	29.837 
13:10	79.4	79.4	80.0	46	56.8	1	4	292	0.00	29.840 
13:15	79.4	79.4	80.0	46	56.8	1	2	292	0.00	29.835 
13:20	79.8	79.8	80.1	44	55.9	1	3	315	0.00	29.834 
13:25	80.3	80.3	80.5	44	56.4	0	2	315	0.00	29.834 
13:30	79.6	79.6	79.8	42	54.5	1	4	315	0.00	29.836 
13:35	78.5	78.5	79.4	46	56.0	1	2	292	0.00	29.838 
13:40	78.3	78.3	79.1	44	54.6	1	3	315	0.00	29.837 
13:45	79.2	79.2	79.5	42	54.1	1	2	292	0.00	29.830 
13:50	80.1	80.1	80.3	43	55.6	1	4	270	0.00	29.827 
13:55	80.1	80.1	80.1	41	54.2	1	4	248	0.00	29.828 
14:00	79.6	79.6	80.0	44	55.7	1	2	338	0.00	29.829 
14:05	79.0	79.0	79.6	44	55.2	0	2	338	0.00	29.832 
14:10	78.5	78.5	79.2	43	54.1	1	3	338	0.00	29.832 
14:15	78.3	78.3	79.2	46	55.8	1	3	292	0.00	29.831 
14:20	78.5	78.5	79.2	44	54.7	1	3	292	0.00	29.829 
14:25	78.5	78.5	79.4	46	56.0	1	3	292	0.00	29.829 
14:30	78.5	78.5	79.4	46	56.0	1	3	270	0.00	29.830 
14:35	79.0	79.0	79.7	46	56.4	1	3	270	0.00	29.827 
14:40	79.4	79.4	79.9	45	56.2	1	4	270	0.00	29.827 
14:45	79.9	79.9	80.4	46	57.2	2	5	292	0.00	29.827 
14:50	80.1	80.1	80.5	46	57.4	1	4	248	0.00	29.828 
14:55	79.8	79.8	79.7	39	52.6	2	4	315	0.00	29.828 
15:00	80.5	80.5	80.6	43	55.9	1	3	292	0.00	29.826 
15:05	80.9	80.9	80.5	39	53.6	2	4	270	0.00	29.826 
15:10	80.3	80.3	80.8	47	58.2	2	4	315	0.00	29.824 
15:15	79.0	79.0	80.2	53	60.4	2	5	292	0.00	29.826 
15:20	76.8	76.8	78.6	62	62.8	1	3	315	0.02	29.833 
15:25	73.9	73.9	73.9	67	62.2	0	2	0	0.02	29.830 
15:30	71.5	71.5	71.5	73	62.4	1	3	338	0.03	29.834 
15:35	69.6	69.6	69.6	78	62.4	2	6	292	0.02	29.847 
15:40	68.3	68.3	68.3	81	62.2	1	6	315	0.02	29.842 
15:45	68.1	68.1	68.1	86	63.7	0	1	315	0.01	29.838 
15:50	68.1	68.1	68.1	88	64.4	0	1	315	0.00	29.838 
15:55	68.9	68.9	68.9	89	65.5	0	1	315	0.00	29.834 
16:00	70.1	70.1	70.1	89	66.7	0	2	315	0.00	29.832 
16:05	70.8	70.8	70.8	84	65.7	1	3	315	0.00	29.832 
16:10	71.8	71.8	71.8	73	62.7	2	6	315	0.00	29.831 
16:15	72.5	72.5	72.5	73	63.3	1	2	315	0.00	29.831 
16:20	73.2	73.2	73.2	68	62.0	1	3	315	0.00	29.830 
16:25	73.9	73.9	73.9	59	58.7	1	3	315	0.00	29.831 
16:30	74.2	74.2	74.2	59	58.9	1	3	315	0.00	29.831 
16:35	74.2	74.2	74.2	59	58.9	2	5	315	0.00	29.832 
16:40	74.0	74.0	74.0	60	59.2	1	3	315	0.00	29.836 
16:45	74.0	74.0	74.0	61	59.7	1	2	292	0.00	29.837 
16:50	74.6	74.6	74.6	63	61.2	0	3	292	0.00	29.836 
16:55	75.4	75.4	77.6	60	60.5	1	3	292	0.00	29.834 
17:00	75.8	75.8	77.9	60	60.9	1	4	292	0.00	29.837 
17:05	75.8	75.8	77.9	58	59.9	1	5	270	0.00	29.838 
17:10	75.6	75.6	77.8	57	59.3	1	5	292	0.00	29.839 
17:15	75.6	75.6	77.8	59	60.2	0	1	315	0.00	29.837 
17:20	75.6	75.6	77.8	56	58.8	1	6	315	0.00	29.835 
17:25	75.6	75.6	77.8	57	59.3	1	2	315	0.00	29.834 
17:30	75.6	75.6	77.8	55	58.3	1	2	315	0.00	29.836 
17:35	75.4	75.4	77.8	54	57.6	0	3	292	0.00	29.836 
17:40	75.4	75.4	77.8	54	57.6	1	4	315	0.00	29.835 
17:45	75.6	75.6	77.9	54	57.8	1	3	338	0.00	29.834 
17:50	75.4	75.4	77.7	55	58.1	0	2	270	0.00	29.833 
17:55	75.4	75.4	77.8	53	57.1	0	3	292	0.00	29.833 
18:00	75.4	75.4	77.8	54	57.6	0	2	292	0.00	29.832 
18:05	75.3	75.3	77.7	55	58.0	1	3	292	0.00	29.834 
18:10	75.3	75.3	77.7	55	58.0	1	3	292	0.00	29.837 
18:15	75.1	75.1	77.6	55	57.8	1	2	0	0.00	29.839 
18:20	75.1	75.1	77.5	58	59.3	0	1	0	0.00	29.838 
18:25	75.1	75.1	77.5	57	58.8	0	1	0	0.00	29.837 
18:30	74.9	74.9	74.9	55	57.6	1	4	248	0.00	29.840 
18:35	75.1	75.1	77.6	55	57.8	1	3	315	0.00	29.842 
18:40	74.9	74.9	74.9	55	57.6	1	2	315	0.00	29.843 
18:45	74.9	74.9	74.9	56	58.1	1	2	315	0.00	29.845 
18:50	74.6	74.6	74.6	55	57.3	1	3	292	0.00	29.846 
18:55	74.2	74.2	74.2	54	56.5	1	4	292	0.00	29.846 
19:00	74.0	74.0	74.0	54	56.3	1	3	315	0.00	29.849 
19:05	73.7	73.7	73.7	53	55.5	1	3	315	0.00	29.848 
19:10	73.3	73.3	73.3	54	55.6	1	4	315	0.00	29.849 
19:15	73.2	73.2	73.2	55	56.0	1	2	292	0.00	29.852 
19:20	72.8	72.8	72.8	55	55.7	1	3	315	0.00	29.853 
19:25	72.7	72.7	72.7	57	56.6	0	3	315	0.00	29.857 
19:30	72.3	72.3	72.3	57	56.2	1	3	315	0.00	29.858 
19:35	72.1	72.1	72.1	58	56.5	1	2	292	0.00	29.859 
19:40	71.8	71.8	71.8	59	56.7	0	2	292	0.00	29.858 
19:45	71.5	71.5	71.5	59	56.4	0	2	292	0.00	29.859 
19:50	71.3	71.3	71.3	59	56.2	1	3	292	0.00	29.861 
19:55	71.1	71.1	71.1	60	56.5	0	1	315	0.00	29.861 
20:00	70.8	70.8	70.8	60	56.2	0	1	315	0.00	29.862 
20:05	70.4	70.4	70.4	61	56.3	0	2	315	0.00	29.864 
20:10	70.1	70.1	70.1	61	56.0	0	1	315	0.00	29.865 
20:15	69.9	69.9	69.9	61	55.8	0	2	315	0.00	29.871 
20:20	69.6	69.6	69.6	61	55.5	0	2	315	0.00	29.872 
20:25	69.4	69.4	69.4	62	55.8	0	1	292	0.00	29.872 
20:30	69.1	69.1	69.1	62	55.5	0	1	292	0.00	29.872 
20:35	68.9	68.9	68.9	62	55.3	0	1	292	0.00	29.873 
20:40	68.6	68.6	68.6	63	55.5	0	1	292	0.00	29.873 
20:45	68.4	68.4	68.4	64	55.7	0	1	292	0.00	29.876 
20:50	68.1	68.1	68.1	64	55.5	0	1	292	0.00	29.875 
20:55	67.9	67.9	67.9	65	55.7	0	0	---	0.00	29.876 
21:00	67.6	67.6	67.6	65	55.4	0	1	292	0.00	29.876 
21:05	67.6	67.6	67.6	66	55.8	0	1	292	0.00	29.875 
21:10	67.4	67.4	67.4	66	55.6	0	1	292	0.00	29.874 
21:15	67.3	67.3	67.3	67	56.0	0	0	---	0.00	29.875 
21:20	67.1	67.1	67.1	67	55.8	0	1	292	0.00	29.876 
21:25	67.1	67.1	67.1	66	55.4	0	1	292	0.00	29.877 
21:30	67.1	67.1	67.1	67	55.8	0	1	292	0.00	29.878 
21:35	66.9	66.9	66.9	67	55.6	0	1	292	0.00	29.880 
21:40	66.8	66.8	66.8	68	55.9	0	1	292	0.00	29.880 
21:45	66.4	66.4	66.4	69	55.9	0	1	292	0.00	29.881 
21:50	66.4	66.4	66.4	69	55.9	0	1	292	0.00	29.879 
21:55	66.3	66.3	66.3	69	55.8	0	1	292	0.00	29.878 
22:00	66.1	66.1	66.1	70	56.0	0	1	292	0.00	29.876 
22:05	65.8	65.8	65.8	70	55.7	0	1	292	0.00	29.876 
22:10	65.6	65.6	65.6	70	55.5	0	1	292	0.00	29.876 
22:15	65.6	65.6	65.6	70	55.5	0	1	292	0.00	29.877 
22:20	65.5	65.5	65.5	71	55.8	0	1	292	0.00	29.879 
22:25	65.3	65.3	65.3	71	55.6	0	1	292	0.00	29.877 
22:30	65.2	65.2	65.2	71	55.6	0	1	292	0.00	29.877 
22:35	65.0	65.0	65.0	72	55.7	0	0	---	0.00	29.877 
22:40	64.8	64.8	64.8	72	55.6	0	2	292	0.00	29.875 
22:45	64.7	64.7	64.7	73	55.8	0	1	292	0.00	29.876 
22:50	64.7	64.7	64.7	73	55.8	0	1	292	0.00	29.876 
22:55	64.5	64.5	64.5	73	55.6	0	1	292	0.00	29.875 
23:00	64.3	64.3	64.3	73	55.5	0	1	292	0.00	29.874 
23:05	64.3	64.3	64.3	74	55.8	0	1	292	0.00	29.874 
23:10	64.0	64.0	64.0	74	55.5	0	0	---	0.00	29.873 
23:15	63.9	63.9	63.9	75	55.8	0	1	292	0.00	29.873 
23:20	63.7	63.7	63.7	76	56.0	0	1	292	0.00	29.873 
23:25	63.5	63.5	63.5	76	55.8	0	1	292	0.00	29.872 
23:30	63.5	63.5	63.5	77	56.2	0	1	292	0.00	29.871 
23:35	63.4	63.4	63.4	77	56.1	0	1	292	0.00	29.872 
23:40	63.2	63.2	63.2	78	56.2	0	1	292	0.00	29.871 
23:45	63.2	63.2	63.2	78	56.2	0	0	---	0.00	29.870 
23:50	63.1	63.1	63.1	79	56.5	0	1	292	0.00	29.870 
23:55	63.1	63.1	63.1	79	56.5	0	0	---	0.00	29.869 

CoCoRaHS
IN-AL-39
A2 Web Hosting
Creative Commons License
GoDaddy
Look for:

loaded 2017-10-17 09:21:35 • last modified 2010-11-18 10:43:29
Privacy PolicyDisclaimer
• wx.awcolley.com is powered by PmWiki v.2002016 •
• all content (unless otherwise noted) © 2017 A W Colley